Latest Weather Observations for Milingimbi

IDD60801

Issued at 10:31 am CST Sunday 24 September 2017 (issued every 30 minutes, with the page automatically refreshed every 10 minutes)

About weather observations | Map of weather stations | Latest weather observations for NT | Other Formats
Station Details ID: 014404 Name: MILINGIMBI AIRPORT Lat: -12.09 Lon: 134.89 Height: 15.0 m
Data from the previous 72 hours. | See also: Recent months at Milingimbi
Date/Time
CST
Temp
°C
App
Temp
°C
Dew
Point
°C
Rel
Hum
%
Delta-T
°C
Wind Press
QNH
hPa
Press
MSL
hPa
Rain since
9am
mm
Dir  Spd
km/h
Gust
km/h
Spd
kts
Gust
kts
24/10:30am 29.6 31.8 21.8 63 5.3 ENE 13 22 7 12 1013.2 - 0.0
24/10:00am 29.2 31.3 21.7 64 5.0 NE 13 19 7 10 1013.4 - 0.0
24/09:30am 28.6 30.6 21.6 66 4.7 ENE 13 20 7 11 1013.5 - 0.0
24/09:00am 28.4 30.9 22.4 70 4.1 ENE 13 20 7 11 1013.4 1013.3 0.0
24/08:30am 27.3 29.3 21.6 71 3.8 NE 13 19 7 10 1013.1 - 0.0
24/08:00am 27.8 31.1 22.5 73 3.6 NE 9 17 5 9 1012.8 - 0.0
24/07:30am 25.5 30.1 21.8 80 2.5 CALM 0 0 0 0 1012.5 - 0.0
24/07:00am 23.8 28.6 22.2 91 1.1 CALM 0 0 0 0 1012.2 - 0.0
24/06:30am 22.9 27.3 21.4 91 1.0 CALM 0 0 0 0 1011.8 - 0.0
24/06:00am 22.9 27.1 21.0 89 1.2 CALM 0 0 0 0 1011.7 1011.6 0.0
24/05:30am 23.1 27.3 21.0 88 1.4 CALM 0 0 0 0 1011.7 - 0.0
24/05:00am 23.3 27.6 21.2 88 1.4 CALM 0 0 0 0 1011.5 - 0.0
24/04:30am 23.8 27.9 21.5 87 1.5 ENE 2 6 1 3 1011.3 - 0.0
24/04:00am 24.5 28.0 21.8 85 1.8 E 6 7 3 4 1011.2 - 0.0
24/03:30am 24.8 28.3 21.9 84 1.9 ENE 6 7 3 4 1011.1 - 0.0
24/03:00am 25.1 28.7 22.4 85 1.8 E 7 9 4 5 1011.2 1011.1 0.0
24/02:30am 25.4 29.1 22.5 84 2.0 ENE 7 11 4 6 1011.4 - 0.0
24/02:00am 25.6 29.2 22.3 82 2.2 ENE 7 11 4 6 1011.9 - 0.0
24/01:30am 25.9 29.0 22.2 80 2.5 ENE 9 15 5 8 1012.2 - 0.0
24/01:00am 26.3 28.9 21.9 77 2.9 ENE 11 17 6 9 1012.4 - 0.0
24/12:30am 26.5 29.5 21.9 76 3.1 ENE 9 19 5 10 1012.6 - 0.0
24/12:00am 26.3 29.0 22.2 78 2.8 NE 11 17 6 9 1012.9 1012.8 0.0
 
Date/Time
CST
Temp
°C
App
Temp
°C
Dew
Point
°C
Rel
Hum
%
Delta-T
°C
Wind Press
QNH
hPa
Press
MSL
hPa
Rain since
9am
mm
Dir  Spd
km/h
Gust
km/h
Spd
kts
Gust
kts
23/11:30pm 26.1 29.1 22.0 78 2.7 NE 9 15 5 8 1013.1 - 0.0
23/11:00pm 26.2 29.1 21.8 77 2.9 NE 9 15 5 8 1013.2 - 0.0
23/10:30pm 26.4 29.6 22.3 78 2.8 NE 9 15 5 8 1013.2 - 0.0
23/10:00pm 26.5 29.0 21.7 75 3.2 NE 11 15 6 8 1012.8 - 0.0
23/09:30pm 26.6 29.5 21.8 75 3.2 NE 9 15 5 8 1012.5 - 0.0
23/09:00pm 26.6 29.7 22.2 77 3.0 NE 9 17 5 9 1012.1 1012.0 0.0
23/08:30pm 26.7 29.9 22.3 77 3.0 NE 9 13 5 7 1011.9 - 0.0
23/08:00pm 26.9 30.2 22.5 77 3.0 NE 9 15 5 8 1011.7 - 0.0
23/07:30pm 27.0 29.7 22.2 75 3.2 NNE 11 17 6 9 1011.4 - 0.0
23/07:00pm 27.2 30.3 22.2 74 3.4 NNE 9 19 5 10 1011.1 - 0.0
23/06:30pm 27.4 29.6 21.9 72 3.7 NNE 13 20 7 11 1010.8 - 0.0
23/06:00pm 27.9 30.1 21.9 70 4.0 NNE 13 22 7 12 1010.7 1010.6 0.0
23/05:30pm 28.5 30.4 22.0 68 4.4 N 15 30 8 16 1010.6 - 0.0
23/05:00pm 29.0 30.3 21.7 64 4.9 N 17 28 9 15 1010.4 - 0.0
23/04:30pm 29.9 31.6 21.6 61 5.6 N 15 26 8 14 1010.2 - 0.0
23/04:00pm 31.3 33.0 20.9 54 7.0 NNE 13 24 7 13 1010.2 - 0.0
23/03:30pm 31.3 31.6 19.6 49 7.7 NE 17 30 9 16 1010.4 - 0.0
23/03:00pm 31.5 31.4 18.8 46 8.3 NE 17 30 9 16 1010.7 1010.6 0.0
23/02:30pm 30.8 30.7 19.5 51 7.4 ENE 19 28 10 15 1011.2 - 0.0
23/02:00pm 31.3 32.1 20.6 53 7.1 NE 17 26 9 14 1011.5 - 0.0
23/01:30pm 31.1 31.9 20.7 54 6.9 NE 17 28 9 15 1011.9 - 0.0
23/01:00pm 31.5 32.1 21.1 54 7.0 NE 19 28 10 15 1012.1 - 0.0
23/12:30pm 30.5 31.1 21.0 57 6.3 ENE 19 28 10 15 1012.5 - 0.0
23/12:00pm 30.6 31.8 21.4 58 6.2 ENE 17 26 9 14 1013.0 1012.9 0.0
23/11:30am 30.0 31.2 21.4 60 5.8 ENE 17 30 9 16 1013.4 - 0.0
23/11:00am 29.1 29.7 21.1 62 5.3 NE 19 26 10 14 1013.8 - 0.0
23/10:30am 29.7 31.1 21.9 63 5.3 NE 17 24 9 13 1014.1 - 0.0
23/10:00am 29.4 30.7 20.8 60 5.7 E 15 24 8 13 1014.1 - 0.0
23/09:30am 29.4 31.3 21.4 62 5.4 E 13 20 7 11 1014.1 - 0.0
23/09:00am 29.1 31.3 21.8 64 4.9 E 13 19 7 10 1014.0 1013.9 0.0
23/08:30am 28.2 30.2 21.5 67 4.5 E 13 19 7 10 1013.9 - 0.0
23/08:00am 27.3 29.3 21.6 71 3.8 ESE 13 17 7 9 1013.8 - 0.0
23/07:30am 25.7 29.3 22.0 80 2.5 ESE 6 9 3 5 1013.4 - 0.0
23/07:00am 23.6 27.3 21.5 88 1.4 SE 4 6 2 3 1013.1 - 0.0
23/06:30am 22.7 26.9 21.0 90 1.1 CALM 0 0 0 0 1012.9 - 0.0
23/06:00am 22.7 25.6 20.6 88 1.4 SE 6 7 3 4 1012.6 1012.5 0.0
23/05:30am 22.9 25.8 20.6 87 1.5 SSE 6 7 3 4 1012.3 - 0.0
23/05:00am 23.3 26.4 21.0 87 1.5 SSE 6 7 3 4 1012.3 - 0.0
23/04:30am 23.9 26.9 21.2 85 1.8 SSE 7 9 4 5 1012.1 - 0.0
23/04:00am 24.5 27.6 21.4 83 2.0 E 7 11 4 6 1012.0 - 0.0
23/03:30am 24.7 27.6 21.8 84 1.9 E 9 13 5 7 1012.0 - 0.0
23/03:00am 25.1 27.6 21.8 82 2.2 E 11 13 6 7 1012.2 1012.1 0.0
23/02:30am 25.3 28.2 21.8 81 2.3 E 9 15 5 8 1012.3 - 0.0
23/02:00am 25.6 28.1 21.7 79 2.6 E 11 19 6 10 1012.4 - 0.0
23/01:30am 25.9 28.9 22.0 79 2.6 E 9 17 5 9 1012.6 - 0.0
23/01:00am 26.0 29.4 22.7 82 2.2 E 9 17 5 9 1012.8 - 0.0
23/12:30am 25.9 29.6 22.6 82 2.2 ENE 7 11 4 6 1012.9 - 0.0
23/12:00am 25.9 29.1 22.4 81 2.4 E 9 17 5 9 1013.1 1013.0 0.0
 
Date/Time
CST
Temp
°C
App
Temp
°C
Dew
Point
°C
Rel
Hum
%
Delta-T
°C
Wind Press
QNH
hPa
Press
MSL
hPa
Rain since
9am
mm
Dir  Spd
km/h
Gust
km/h
Spd
kts
Gust
kts
22/11:30pm 26.1 29.4 22.6 81 2.4 ENE 9 15 5 8 1013.2 - 0.0
22/11:00pm 26.4 29.4 22.7 80 2.5 ENE 11 17 6 9 1013.3 - 0.0
22/10:30pm 26.6 29.1 22.4 78 2.8 ENE 13 19 7 10 1013.1 - 0.0
22/10:00pm 26.7 29.1 22.3 77 3.0 ENE 13 22 7 12 1013.2 - 0.0
22/09:30pm 26.7 29.3 21.9 75 3.2 ENE 11 17 6 9 1013.0 - 0.0
22/09:00pm 26.8 29.3 21.8 74 3.3 NE 11 19 6 10 1012.8 1012.7 0.0
22/08:30pm 27.0 29.5 22.4 76 3.1 NE 13 22 7 12 1012.6 - 0.0
22/08:00pm 27.0 29.9 22.4 76 3.1 NE 11 17 6 9 1012.4 - 0.0
22/07:30pm 27.1 29.8 22.1 74 3.4 NE 11 19 6 10 1012.1 - 0.0
22/07:00pm 27.2 29.6 22.2 74 3.4 NE 13 19 7 10 1011.9 - 0.0
22/06:30pm 27.5 30.1 22.7 75 3.3 NE 13 20 7 11 1011.6 - 0.0
22/06:00pm 28.1 31.2 22.8 73 3.6 NE 11 19 6 10 1011.3 1011.2 0.0
22/05:30pm 28.6 31.3 22.8 71 3.9 NNE 13 24 7 13 1011.0 - 0.0
22/05:00pm 29.3 32.4 22.8 68 4.4 NNE 11 22 6 12 1010.7 - 0.0
22/04:30pm 29.7 32.0 22.7 66 4.8 NNE 15 24 8 13 1010.6 - 0.0
22/04:00pm 30.8 33.1 22.7 62 5.5 NNE 15 26 8 14 1010.6 - 0.0
22/03:30pm 30.4 32.6 22.6 63 5.3 N 15 26 8 14 1010.6 - 0.0
22/03:00pm 31.0 33.0 22.3 60 5.9 NNE 15 24 8 13 1010.8 1010.7 0.0
22/02:30pm 30.8 32.5 22.4 61 5.7 N 17 32 9 17 1011.1 - 0.0
22/02:00pm 31.1 33.0 22.7 61 5.7 N 17 24 9 13 1011.4 - 0.0
22/01:30pm 32.1 33.8 21.6 53 7.1 NE 15 22 8 12 1011.7 - 0.0
22/01:00pm 31.7 32.6 20.9 52 7.2 ENE 17 26 9 14 1012.2 - 0.0
22/12:30pm 30.9 32.1 21.4 57 6.4 ENE 17 28 9 15 1012.6 - 0.0
22/12:00pm 29.6 30.4 21.3 61 5.6 NE 19 30 10 16 1013.1 1013.0 0.0
22/11:30am 29.4 30.0 21.1 61 5.5 ENE 19 28 10 15 1013.5 - 0.0
22/11:00am 29.9 31.6 21.6 61 5.6 NE 15 26 8 14 1013.7 - 0.0
22/10:30am 29.3 30.7 21.8 64 5.0 ENE 17 28 9 15 1013.9 - 0.0
22/10:00am 29.1 31.1 22.3 66 4.6 NE 15 26 8 14 1014.0 - 0.0
22/09:30am 28.8 30.9 22.5 68 4.3 ENE 15 26 8 14 1014.1 - 0.0
22/09:00am 28.6 30.3 22.3 68 4.3 ENE 17 28 9 15 1014.1 1014.0 0.0
22/08:30am 27.7 29.3 22.2 72 3.7 ENE 17 26 9 14 1014.0 - 0.0
22/08:00am 27.2 29.3 22.4 75 3.2 NE 15 24 8 13 1013.7 - 0.0
22/07:30am 26.5 28.7 22.6 79 2.6 NE 15 20 8 11 1013.5 - 0.0
22/07:00am 25.6 28.8 22.3 82 2.2 NE 9 17 5 9 1013.1 - 0.0
22/06:30am 25.0 28.1 22.1 84 1.9 NE 9 15 5 8 1012.7 - 0.0
22/06:00am 24.2 27.7 21.9 87 1.5 ENE 6 11 3 6 1012.2 1012.1 0.0
22/05:30am 24.2 27.4 21.7 86 1.7 ENE 7 13 4 7 1011.8 - 0.0
22/05:00am 24.1 27.0 21.8 87 1.5 ENE 9 13 5 7 1011.5 - 0.0
22/04:30am 23.9 26.6 21.4 86 1.6 ENE 9 15 5 8 1011.4 - 0.0
22/04:00am 23.8 26.8 21.3 86 1.6 ENE 7 11 4 6 1011.3 - 0.0
22/03:30am 24.1 27.1 21.2 84 1.9 E 7 11 4 6 1011.3 - 0.0
22/03:00am 24.5 27.5 21.2 82 2.2 E 7 11 4 6 1011.4 1011.3 0.0
22/02:30am 24.8 26.8 20.7 78 2.7 E 11 17 6 9 1011.5 - 0.0
22/02:00am 25.1 26.7 20.8 77 2.8 E 13 17 7 9 1011.7 - 0.0
22/01:30am 25.4 26.9 20.6 75 3.1 E 13 22 7 12 1011.9 - 0.0
22/01:00am 25.6 27.5 20.6 74 3.3 E 11 17 6 9 1012.1 - 0.0
22/12:30am 25.8 28.6 21.5 77 2.9 E 9 17 5 9 1012.3 - 0.0
22/12:00am 26.0 28.5 21.7 77 2.9 E 11 17 6 9 1012.4 1012.3 0.0
 
Date/Time
CST
Temp
°C
App
Temp
°C
Dew
Point
°C
Rel
Hum
%
Delta-T
°C
Wind Press
QNH
hPa
Press
MSL
hPa
Rain since
9am
mm
Dir  Spd
km/h
Gust
km/h
Spd
kts
Gust
kts
21/11:30pm 26.1 28.4 22.0 78 2.7 E 13 20 7 11 1012.4 - 0.0
21/11:00pm 26.3 28.5 21.9 77 2.9 E 13 22 7 12 1012.3 - 0.0
21/10:30pm 26.4 29.0 22.0 77 2.9 E 11 17 6 9 1012.4 - 0.0
21/10:00pm 26.6 29.3 22.2 77 3.0 ENE 11 20 6 11 1012.1 - 0.0
21/09:30pm 26.8 29.0 22.6 78 2.8 ENE 15 20 8 11 1011.8 - 0.0
21/09:00pm 26.9 29.0 22.5 77 3.0 ENE 15 22 8 12 1011.6 1011.5 0.0
21/08:30pm 27.1 29.1 22.9 78 2.9 ENE 17 26 9 14 1011.4 - 0.0
21/08:00pm 27.2 29.9 22.8 77 3.0 NE 13 24 7 13 1011.1 - 0.0
21/07:30pm 27.4 29.7 22.1 73 3.6 NE 13 20 7 11 1010.7 - 0.0
21/07:00pm 27.6 29.6 21.6 70 4.0 NE 13 20 7 11 1010.3 - 0.0
21/06:30pm 27.9 29.5 21.4 67 4.3 NE 15 28 8 15 1010.2 - 0.0
21/06:00pm 28.3 29.6 20.8 63 5.0 NE 15 24 8 13 1010.0 1009.9 0.0
21/05:30pm 29.0 31.2 21.2 62 5.2 NE 11 30 6 16 1009.8 - 0.0
21/05:00pm 29.1 30.6 21.3 62 5.2 NNE 15 28 8 15 1009.9 - 0.0
21/04:30pm 30.0 31.3 21.7 61 5.6 NNE 17 32 9 17 1009.7 - 0.0
21/04:00pm 30.5 31.5 21.0 57 6.3 NNE 17 30 9 16 1009.8 - 0.0
21/03:30pm 31.7 33.2 21.2 53 7.1 NNE 15 28 8 15 1009.9 - 0.0
21/03:00pm 31.9 33.1 21.4 53 7.1 NNE 17 30 9 16 1010.0 1009.9 0.0
21/02:30pm 32.0 33.1 21.2 52 7.3 NNE 17 30 9 16 1010.1 - 0.0
21/02:00pm 31.7 31.6 18.7 46 8.4 NNE 17 28 9 15 1010.4 - 0.0
21/01:30pm 32.7 32.8 19.9 46 8.5 NE 19 28 10 15 1010.8 - 0.0
21/01:00pm 32.3 32.7 19.9 48 8.2 NE 17 30 9 16 1011.3 - 0.0
21/12:30pm 31.6 32.2 20.2 50 7.6 NE 17 24 9 13 1011.7 - 0.0
21/12:00pm 30.7 32.7 21.5 58 6.2 NE 13 22 7 12 1012.1 1012.0 0.0
21/11:30am 30.9 33.1 21.9 58 6.1 ENE 13 20 7 11 1012.6 - 0.0
21/11:00am 29.8 31.4 21.5 61 5.6 E 15 22 8 12 1012.9 - 0.0

Other Formats:

Comma delimited format used in spreadsheet applications
http://www.bom.gov.au/fwo/IDD60801/IDD60801.94140.axf

JavaScript Object Notation format (JSON) in row-major order
http://www.bom.gov.au/fwo/IDD60801/IDD60801.94140.json